createdAt,value
2018-06-01T00:02:02.146Z,10.40
2018-06-01T00:04:32.345Z,15.50
2018-06-01T00:07:01.650Z,14.97
2018-06-01T00:09:31.083Z,12.10
2018-06-01T00:12:00.373Z,12.77
2018-06-01T00:14:30.511Z,11.60
2018-06-01T00:16:59.795Z,14.10
2018-06-01T00:19:30.517Z,14.00
2018-06-01T00:21:59.896Z,15.53
2018-06-01T00:24:30.034Z,10.73
2018-06-01T00:26:59.382Z,12.53
2018-06-01T00:29:28.824Z,12.07
2018-06-01T00:31:58.081Z,13.43
2018-06-01T00:34:27.400Z,10.33
2018-06-01T00:36:56.676Z,14.47
2018-06-01T00:39:26.031Z,12.30
2018-06-01T00:41:55.347Z,12.57
2018-06-01T00:44:24.651Z,12.53
2018-06-01T00:46:54.372Z,13.50
2018-06-01T00:49:24.462Z,14.63
2018-06-01T00:51:53.835Z,12.00
2018-06-01T00:54:23.089Z,12.23
2018-06-01T00:56:53.151Z,15.10
2018-06-01T00:59:22.883Z,12.97
2018-06-01T01:01:52.212Z,12.50
2018-06-01T01:04:21.553Z,12.77
2018-06-01T01:06:50.887Z,13.03
2018-06-01T01:09:22.215Z,10.40
2018-06-01T01:11:52.329Z,13.03
2018-06-01T01:14:21.606Z,13.83
2018-06-01T01:16:51.145Z,13.00
2018-06-01T01:19:20.507Z,13.30
2018-06-01T01:21:50.276Z,15.27
2018-06-01T01:24:19.371Z,15.77
2018-06-01T01:26:48.685Z,11.33
2018-06-01T01:29:18.710Z,13.57
2018-06-01T01:31:48.065Z,13.90
2018-06-01T01:34:17.338Z,13.50
2018-06-01T01:36:47.407Z,13.67
2018-06-01T01:39:16.721Z,11.20
2018-06-01T01:41:46.025Z,12.10
2018-06-01T01:44:15.390Z,13.87
2018-06-01T01:46:44.737Z,11.27
2018-06-01T01:49:14.025Z,14.17
2018-06-01T01:51:43.368Z,11.27
2018-06-01T01:54:12.696Z,11.77
2018-06-01T01:56:42.771Z,10.37
2018-06-01T01:59:12.831Z,11.17
2018-06-01T02:01:42.628Z,12.13
2018-06-01T02:04:12.731Z,10.00
2018-06-01T02:06:42.819Z,9.23
2018-06-01T02:09:12.259Z,9.87
2018-06-01T02:11:41.539Z,8.87
2018-06-01T02:14:10.876Z,9.97
2018-06-01T02:16:41.014Z,7.60
2018-06-01T02:19:10.282Z,7.80
2018-06-01T02:21:40.300Z,8.57
2018-06-01T02:24:09.524Z,7.20
2018-06-01T02:26:39.513Z,6.73
2018-06-01T02:29:08.799Z,5.30
2018-06-01T02:31:38.035Z,9.23
2018-06-01T02:34:07.279Z,6.43
2018-06-01T02:36:36.530Z,4.90
2018-06-01T02:39:06.603Z,7.03
2018-06-01T02:41:35.859Z,4.90
2018-06-01T02:44:05.064Z,6.10
2018-06-01T02:46:34.296Z,3.03
2018-06-01T02:49:03.626Z,3.23
2018-06-01T02:51:32.926Z,3.10
2018-06-01T02:54:02.226Z,2.40
2018-06-01T02:56:31.479Z,2.93
2018-06-01T02:59:00.704Z,3.40
2018-06-01T03:01:29.977Z,2.73
2018-06-01T03:03:59.253Z,3.03
2018-06-01T03:06:40.248Z,2.67
2018-06-01T03:09:09.504Z,3.03
2018-06-01T03:11:38.802Z,3.07
2018-06-01T03:14:08.031Z,2.13
2018-06-01T03:16:38.016Z,3.27
2018-06-01T03:19:07.256Z,2.00
2018-06-01T03:21:36.551Z,2.33
2018-06-01T03:24:05.837Z,1.53
2018-06-01T03:26:35.103Z,3.03
2018-06-01T03:29:05.180Z,4.30
2018-06-01T03:31:34.443Z,2.63
2018-06-01T03:34:05.172Z,2.10
2018-06-01T03:36:34.422Z,4.90
2018-06-01T03:39:03.711Z,2.90
2018-06-01T03:41:33.794Z,3.60
2018-06-01T03:44:03.048Z,5.40
2018-06-01T03:46:33.380Z,5.43
2018-06-01T03:49:02.716Z,3.33
2018-06-01T03:51:31.923Z,4.73
2018-06-01T03:54:01.146Z,3.00
2018-06-01T03:56:30.364Z,4.27
2018-06-01T03:59:00.674Z,3.23
2018-06-01T04:01:29.957Z,4.37
2018-06-01T04:03:59.566Z,4.40
2018-06-01T04:06:28.816Z,4.80
2018-06-01T04:08:58.844Z,2.60
2018-06-01T04:11:28.195Z,3.23
2018-06-01T04:13:57.670Z,1.90
2018-06-01T04:16:26.990Z,3.53
2018-06-01T04:18:56.265Z,3.07
2018-06-01T04:21:25.524Z,3.60
2018-06-01T04:23:54.915Z,2.57
2018-06-01T04:26:24.163Z,3.83
2018-06-01T04:28:53.494Z,2.03
2018-06-01T04:31:22.732Z,3.60
2018-06-01T04:33:54.139Z,4.10
2018-06-01T04:36:23.369Z,2.57
2018-06-01T04:38:52.594Z,3.00
2018-06-01T04:41:21.936Z,4.60
2018-06-01T04:43:51.931Z,5.63
2018-06-01T04:46:21.275Z,3.60
2018-06-01T04:48:50.579Z,5.60
2018-06-01T04:51:19.855Z,4.17
2018-06-01T04:53:49.510Z,3.07
2018-06-01T04:56:19.831Z,2.80
2018-06-01T04:58:49.112Z,4.73
2018-06-01T05:01:18.463Z,3.70
2018-06-01T05:03:48.494Z,2.13
2018-06-01T05:06:17.975Z,2.57
2018-06-01T05:08:48.113Z,3.40
2018-06-01T05:11:17.397Z,3.53
2018-06-01T05:13:46.729Z,6.80
2018-06-01T05:16:16.083Z,3.73
2018-06-01T05:18:45.395Z,4.30
2018-06-01T05:21:14.723Z,2.63
2018-06-01T05:23:47.476Z,4.07
2018-06-01T05:26:17.563Z,2.10
2018-06-01T05:28:47.034Z,2.90
2018-06-01T05:31:17.161Z,3.70
2018-06-01T05:33:46.529Z,4.43
2018-06-01T05:36:15.953Z,2.90
2018-06-01T05:38:45.363Z,4.50
2018-06-01T05:41:14.904Z,4.17
2018-06-01T05:43:44.190Z,2.23
2018-06-01T05:46:14.311Z,2.57
2018-06-01T05:48:44.301Z,4.17
2018-06-01T05:51:13.670Z,2.80
2018-06-01T05:53:42.969Z,3.53
2018-06-01T05:56:13.133Z,2.57
2018-06-01T05:58:42.806Z,2.73
2018-06-01T06:01:11.872Z,3.47
2018-06-01T06:03:41.623Z,3.83
2018-06-01T06:06:10.928Z,4.33
2018-06-01T06:08:40.113Z,3.13
2018-06-01T06:11:09.299Z,2.80
2018-06-01T06:13:38.667Z,3.33
2018-06-01T06:16:07.932Z,3.73
2018-06-01T06:18:37.946Z,4.57
2018-06-01T06:21:07.940Z,5.73
2018-06-01T06:23:37.124Z,3.00
2018-06-01T06:26:06.325Z,2.87
2018-06-01T06:28:35.503Z,3.83
2018-06-01T06:31:04.713Z,3.37
2018-06-01T06:33:33.931Z,9.90
2018-06-01T06:36:03.099Z,3.40
2018-06-01T06:38:32.320Z,3.87
2018-06-01T06:41:01.512Z,5.33
2018-06-01T06:43:30.651Z,5.17
2018-06-01T06:45:59.818Z,3.60
2018-06-01T06:48:29.784Z,4.27
2018-06-01T06:50:59.726Z,4.23
2018-06-01T06:53:28.923Z,6.13
2018-06-01T06:55:58.139Z,5.77
2018-06-01T06:58:27.340Z,4.20
2018-06-01T07:00:56.528Z,4.53
2018-06-01T07:03:25.736Z,3.17
2018-06-01T07:05:54.907Z,4.07
2018-06-01T07:08:24.038Z,3.43
2018-06-01T07:10:53.222Z,3.77
2018-06-01T07:13:22.419Z,4.23
2018-06-01T07:15:51.609Z,4.63
2018-06-01T07:18:21.117Z,6.37
2018-06-01T07:20:50.331Z,3.53
2018-06-01T07:23:20.322Z,3.83
2018-06-01T07:25:49.563Z,4.20
2018-06-01T07:28:18.845Z,4.00
2018-06-01T07:30:48.030Z,2.70
2018-06-01T07:33:17.256Z,3.70
2018-06-01T07:35:46.476Z,3.60
2018-06-01T07:38:16.390Z,2.60
2018-06-01T07:40:45.646Z,3.53
2018-06-01T07:43:14.804Z,4.77
2018-06-01T07:45:44.760Z,4.10
2018-06-01T07:48:13.890Z,3.73
2018-06-01T07:50:43.075Z,4.27
2018-06-01T07:53:12.228Z,4.23
2018-06-01T07:55:41.342Z,4.50
2018-06-01T07:58:10.483Z,4.23
2018-06-01T08:00:40.483Z,6.70
2018-06-01T08:03:10.497Z,5.27
2018-06-01T08:05:39.654Z,4.93
2018-06-01T08:08:08.927Z,5.60
2018-06-01T08:10:38.820Z,5.50
2018-06-01T08:13:08.794Z,6.03
2018-06-01T08:15:37.988Z,5.23
2018-06-01T08:18:07.140Z,4.60
2018-06-01T08:20:37.064Z,4.97
2018-06-01T08:23:06.307Z,6.87
2018-06-01T08:25:35.316Z,4.70
2018-06-01T08:28:05.303Z,4.90
2018-06-01T08:30:34.513Z,4.07
2018-06-01T08:33:03.699Z,4.87
2018-06-01T08:35:32.898Z,4.97
2018-06-01T08:38:02.053Z,3.87
2018-06-01T08:40:31.223Z,5.13
2018-06-01T08:43:01.175Z,3.47
2018-06-01T08:45:31.141Z,2.83
2018-06-01T08:48:00.316Z,3.60
2018-06-01T08:50:29.531Z,4.33
2018-06-01T08:53:09.825Z,4.00
2018-06-01T08:55:39.083Z,3.20
2018-06-01T08:58:08.329Z,4.43
2018-06-01T09:00:37.636Z,2.37
2018-06-01T09:03:06.835Z,4.47
2018-06-01T09:05:36.845Z,2.87
2018-06-01T09:08:06.859Z,4.50
2018-06-01T09:10:36.013Z,7.78
2018-06-01T09:13:05.200Z,4.73
2018-06-01T09:15:34.448Z,3.23
2018-06-01T09:18:03.704Z,4.85
2018-06-01T09:20:32.878Z,4.87
2018-06-01T09:23:02.096Z,3.50
2018-06-01T09:25:31.322Z,4.60
2018-06-01T09:28:00.518Z,3.47
2018-06-01T09:30:29.745Z,3.50
2018-06-01T09:32:58.930Z,3.85
2018-06-01T09:35:28.169Z,4.72
2018-06-01T09:37:57.417Z,4.47
2018-06-01T09:40:26.588Z,3.70
2018-06-01T09:42:55.724Z,4.72
2018-06-01T09:45:24.930Z,5.82
2018-06-01T09:47:54.116Z,3.17
2018-06-01T09:50:23.324Z,3.37
2018-06-01T09:52:53.259Z,3.37
2018-06-01T09:55:22.478Z,3.65
2018-06-01T09:57:52.430Z,2.95
2018-06-01T10:00:27.152Z,3.58
2018-06-01T10:02:56.382Z,3.80
2018-06-01T10:05:28.599Z,2.87
2018-06-01T10:07:57.747Z,3.12
2018-06-01T10:10:33.368Z,2.87
2018-06-01T10:13:02.554Z,4.78
2018-06-01T10:15:31.896Z,3.60
2018-06-01T10:18:01.823Z,3.42
2018-06-01T10:20:31.885Z,3.20
2018-06-01T10:23:01.174Z,2.17
2018-06-01T10:25:30.448Z,4.53
2018-06-01T10:27:59.675Z,3.53
2018-06-01T10:30:28.813Z,4.43
2018-06-01T10:32:58.112Z,3.28
2018-06-01T10:35:27.256Z,3.30
2018-06-01T10:37:56.588Z,3.72
2018-06-01T10:40:25.876Z,3.12
2018-06-01T10:42:55.090Z,3.37
2018-06-01T10:45:24.311Z,3.20
2018-06-01T10:47:54.312Z,3.05
2018-06-01T10:50:23.482Z,3.30
2018-06-01T10:52:52.718Z,3.75
2018-06-01T10:55:22.712Z,2.55
2018-06-01T10:57:51.940Z,3.53
2018-06-01T11:00:21.090Z,3.78
2018-06-01T11:02:50.302Z,2.85
2018-06-01T11:05:19.488Z,3.22
2018-06-01T11:07:48.692Z,2.75
2018-06-01T11:10:17.913Z,3.20
2018-06-01T11:12:47.079Z,5.03
2018-06-01T11:15:16.278Z,2.20
2018-06-01T11:17:45.523Z,3.85
2018-06-01T11:20:22.187Z,2.47
2018-06-01T11:22:51.490Z,3.53
2018-06-01T11:25:20.741Z,4.95
2018-06-01T11:27:49.980Z,6.30
2018-06-01T11:30:19.915Z,2.75
2018-06-01T11:32:49.172Z,4.28
2018-06-01T11:35:18.520Z,3.47
2018-06-01T11:37:47.711Z,2.30
2018-06-01T11:40:16.871Z,3.95
2018-06-01T11:42:46.059Z,3.15
2018-06-01T11:45:15.181Z,3.00
2018-06-01T11:47:45.070Z,3.42
2018-06-01T11:50:14.288Z,3.40
2018-06-01T11:52:43.623Z,2.47
2018-06-01T11:55:12.869Z,2.08
2018-06-01T11:57:42.028Z,3.55
2018-06-01T12:00:11.281Z,2.55
2018-06-01T12:02:40.475Z,2.65
2018-06-01T12:05:09.717Z,2.92
2018-06-01T12:07:39.737Z,2.53
2018-06-01T12:10:09.701Z,2.67
2018-06-01T12:12:39.648Z,4.70
2018-06-01T12:15:10.835Z,3.07
2018-06-01T12:17:40.078Z,3.63
2018-06-01T12:20:09.238Z,4.60
2018-06-01T12:22:38.403Z,4.20
2018-06-01T12:25:07.594Z,3.03
2018-06-01T12:27:36.796Z,3.00
2018-06-01T12:30:06.038Z,4.12
2018-06-01T12:32:35.292Z,3.95
2018-06-01T12:35:05.200Z,3.42
2018-06-01T12:37:35.187Z,3.95
2018-06-01T12:40:04.390Z,4.68
2018-06-01T12:42:34.372Z,2.70
2018-06-01T12:45:03.588Z,4.18
2018-06-01T12:47:32.818Z,2.83
2018-06-01T12:50:02.810Z,4.45
2018-06-01T12:52:32.034Z,5.80
2018-06-01T12:55:01.283Z,2.83
2018-06-01T12:57:30.494Z,2.95
2018-06-01T12:59:59.705Z,3.08
2018-06-01T13:02:28.883Z,5.07
2018-06-01T13:04:58.133Z,3.47
2018-06-01T13:07:27.338Z,3.43
2018-06-01T13:09:56.607Z,3.20
2018-06-01T13:12:25.790Z,3.22
2018-06-01T13:14:55.008Z,2.85
2018-06-01T13:17:24.195Z,3.78
2018-06-01T13:19:53.475Z,4.00
2018-06-01T13:22:22.755Z,5.05
2018-06-01T13:24:51.991Z,4.95
2018-06-01T13:27:21.202Z,3.92
2018-06-01T13:29:50.444Z,4.78
2018-06-01T13:32:19.627Z,2.85
2018-06-01T13:34:48.891Z,2.67
2018-06-01T13:37:18.092Z,4.18
2018-06-01T13:39:47.285Z,5.07
2018-06-01T13:42:16.471Z,3.10
2018-06-01T13:44:45.700Z,4.85
2018-06-01T13:47:30.126Z,5.95
2018-06-01T13:49:59.326Z,2.95
2018-06-01T13:52:28.551Z,4.18
2018-06-01T13:54:58.575Z,4.20
2018-06-01T13:57:27.801Z,5.72
2018-06-01T13:59:57.017Z,4.20
2018-06-01T14:02:26.233Z,3.85
2018-06-01T14:04:55.386Z,3.15
2018-06-01T14:07:24.557Z,4.03
2018-06-01T14:09:53.756Z,3.50
2018-06-01T14:12:22.965Z,4.12
2018-06-01T14:14:52.228Z,5.05
2018-06-01T14:17:21.406Z,5.45
2018-06-01T14:19:50.621Z,3.72
2018-06-01T14:22:19.829Z,5.22
2018-06-01T14:24:48.950Z,4.68
2018-06-01T14:27:18.121Z,3.37
2018-06-01T14:29:47.447Z,4.75
2018-06-01T14:32:18.056Z,3.50
2018-06-01T14:34:48.451Z,3.72
2018-06-01T14:37:17.699Z,3.58
2018-06-01T14:39:46.861Z,3.60
2018-06-01T14:42:16.079Z,3.58
2018-06-01T14:50:52.055Z,4.30
2018-06-01T14:53:21.288Z,5.28
2018-06-01T14:55:50.442Z,4.32
2018-06-01T14:58:19.650Z,4.65
2018-06-01T15:00:48.840Z,3.90
2018-06-01T15:03:18.020Z,5.90
2018-06-01T15:05:47.969Z,4.45
2018-06-01T15:08:17.199Z,4.07
2018-06-01T15:10:46.376Z,5.50
2018-06-01T15:13:15.619Z,6.18
2018-06-01T15:15:45.603Z,5.07
2018-06-01T15:18:14.764Z,6.20
2018-06-01T15:20:45.952Z,5.32
2018-06-01T15:23:15.963Z,3.22
2018-06-01T15:25:45.142Z,4.55
2018-06-01T15:28:14.336Z,6.10
2018-06-01T15:30:43.583Z,5.05
2018-06-01T15:33:12.758Z,3.45
2018-06-01T15:35:46.880Z,4.50
2018-06-01T15:38:16.086Z,5.45
2018-06-01T15:40:58.896Z,3.35
2018-06-01T15:43:47.188Z,3.37
2018-06-01T15:46:16.398Z,5.50
2018-06-01T15:48:45.601Z,2.67
2018-06-01T15:51:20.563Z,4.22
2018-06-01T15:53:49.732Z,4.55
2018-06-01T15:56:18.978Z,5.30
2018-06-01T15:58:49.175Z,5.45
2018-06-01T16:01:19.341Z,3.50
2018-06-01T16:03:49.500Z,3.12
2018-06-01T16:06:18.670Z,3.37
2018-06-01T16:08:48.069Z,5.93
2018-06-01T16:11:17.507Z,5.35
2018-06-01T16:13:50.606Z,4.23
2018-06-01T16:19:24.571Z,3.27
2018-06-01T16:22:09.098Z,4.53
2018-06-01T16:24:38.295Z,3.83
2018-06-01T16:27:07.508Z,3.67
2018-06-01T16:29:37.678Z,4.60
2018-06-01T16:32:06.915Z,3.55
2018-06-01T16:34:36.114Z,4.27
2018-06-01T16:37:05.323Z,4.20
2018-06-01T16:39:50.504Z,5.83
2018-06-01T16:42:19.851Z,4.27
2018-06-01T16:44:55.000Z,6.40
2018-06-01T16:47:24.186Z,2.72
2018-06-01T16:49:53.994Z,4.07
2018-06-01T16:52:26.345Z,3.35
2018-06-01T16:54:55.566Z,2.92
2018-06-01T16:57:37.772Z,3.03
2018-06-01T17:00:06.985Z,3.15
2018-06-01T17:02:36.269Z,2.97
2018-06-01T17:05:10.071Z,2.55
2018-06-01T17:10:54.366Z,3.40
2018-06-01T17:16:37.412Z,3.08
2018-06-01T17:19:23.425Z,4.00
2018-06-01T17:21:52.624Z,3.58
2018-06-01T17:24:21.721Z,4.47
2018-06-01T17:27:12.992Z,2.35
2018-06-01T17:29:42.110Z,3.65
2018-06-01T17:32:11.248Z,3.05
2018-06-01T17:34:42.232Z,2.97
2018-06-01T17:37:11.439Z,3.58
2018-06-01T17:39:40.700Z,3.12
2018-06-01T17:42:09.910Z,4.35
2018-06-01T17:44:39.074Z,3.67
2018-06-01T17:47:08.292Z,3.00
2018-06-01T17:49:37.610Z,4.12
2018-06-01T17:52:13.484Z,3.30
2018-06-01T17:54:43.780Z,4.10
2018-06-01T17:57:13.088Z,3.90
2018-06-01T18:02:42.740Z,3.53
2018-06-01T18:05:12.017Z,3.83
2018-06-01T18:08:00.979Z,4.62
2018-06-01T18:10:30.116Z,4.60
2018-06-01T18:13:00.092Z,7.18
2018-06-01T18:15:29.420Z,3.92
2018-06-01T18:18:01.363Z,5.43
2018-06-01T18:20:30.617Z,3.00
2018-06-01T18:22:59.783Z,5.32
2018-06-01T18:25:29.807Z,3.90
2018-06-01T18:30:53.563Z,5.10
2018-06-01T18:33:22.810Z,4.65
2018-06-01T18:36:04.596Z,3.47
2018-06-01T18:38:34.564Z,3.72
2018-06-01T18:41:03.713Z,5.12
2018-06-01T18:43:32.905Z,4.87
2018-06-01T18:46:13.648Z,7.85
2018-06-01T18:48:42.876Z,6.30
2018-06-01T18:51:12.867Z,4.73
2018-06-01T18:56:45.037Z,4.80
2018-06-01T18:59:14.233Z,4.57
2018-06-01T19:01:43.421Z,3.27
2018-06-01T19:04:12.623Z,4.47
2018-06-01T19:06:41.767Z,4.47
2018-06-01T19:09:11.004Z,3.10
2018-06-01T19:11:40.173Z,5.13
2018-06-01T19:14:12.299Z,5.03
2018-06-01T19:16:41.488Z,4.13
2018-06-01T19:19:10.692Z,5.03
2018-06-01T19:24:48.647Z,4.67
2018-06-01T19:27:17.805Z,3.80
2018-06-01T19:36:07.761Z,6.00
2018-06-01T19:38:37.025Z,5.07
2018-06-01T19:41:06.325Z,4.57
2018-06-01T19:43:35.540Z,4.03
2018-06-01T19:46:04.727Z,4.43
2018-06-01T19:48:33.844Z,3.80
2018-06-01T19:51:03.024Z,4.20
2018-06-01T19:53:32.276Z,4.77
2018-06-01T19:56:02.270Z,6.00
2018-06-01T19:58:45.102Z,4.53
2018-06-01T20:01:15.104Z,4.60
2018-06-01T20:03:44.320Z,4.30
2018-06-01T20:06:14.399Z,3.93
2018-06-01T20:08:43.659Z,4.47
2018-06-01T20:11:12.940Z,4.43
2018-06-01T20:13:42.198Z,4.27
2018-06-01T20:16:11.439Z,3.77
2018-06-01T20:18:44.637Z,4.70
2018-06-01T20:21:14.694Z,3.90
2018-06-01T20:23:43.888Z,4.93
2018-06-01T20:26:13.078Z,5.43
2018-06-01T20:28:42.219Z,10.23
2018-06-01T20:31:11.383Z,6.40
2018-06-01T20:33:40.548Z,6.77
2018-06-01T20:36:09.955Z,4.57
2018-06-01T20:38:39.317Z,4.20
2018-06-01T20:41:08.694Z,4.37
2018-06-01T20:43:37.899Z,8.53
2018-06-01T20:46:07.030Z,4.40
2018-06-01T20:48:36.426Z,5.97
2018-06-01T20:51:05.581Z,8.27
2018-06-01T20:53:46.180Z,5.10
2018-06-01T20:56:16.330Z,6.67
2018-06-01T20:58:45.472Z,5.33
2018-06-01T21:01:14.709Z,6.93
2018-06-01T21:03:43.943Z,6.10
2018-06-01T21:06:13.184Z,4.97
2018-06-01T21:08:42.402Z,5.80
2018-06-01T21:11:12.480Z,5.33
2018-06-01T21:13:41.679Z,6.03
2018-06-01T21:16:10.901Z,6.80
2018-06-01T21:18:40.066Z,5.10
2018-06-01T21:21:09.316Z,6.53
2018-06-01T21:23:38.561Z,5.80
2018-06-01T21:26:07.801Z,4.60
2018-06-01T21:28:59.957Z,6.83
2018-06-01T21:31:29.141Z,5.40
2018-06-01T21:33:59.153Z,4.83
2018-06-01T21:36:28.433Z,7.37
2018-06-01T21:38:57.639Z,5.30
2018-06-01T21:41:26.811Z,7.60
2018-06-01T21:43:56.045Z,5.20
2018-06-01T21:46:37.680Z,5.17
2018-06-01T21:49:06.881Z,5.30
2018-06-01T21:51:36.209Z,5.17
2018-06-01T21:54:05.493Z,8.10
2018-06-01T21:56:34.586Z,5.63
2018-06-01T21:59:03.804Z,8.90
2018-06-01T22:01:33.092Z,6.13
2018-06-01T22:04:02.262Z,6.47
2018-06-01T22:06:31.536Z,7.77
2018-06-01T22:09:00.734Z,5.77
2018-06-01T22:11:30.291Z,6.00
2018-06-01T22:13:59.599Z,5.30
2018-06-01T22:16:28.818Z,7.57
2018-06-01T22:18:58.087Z,5.20
2018-06-01T22:21:27.309Z,5.73
2018-06-01T22:23:56.528Z,6.67
2018-06-01T22:26:25.733Z,7.83
2018-06-01T22:28:55.707Z,5.97
2018-06-01T22:31:24.897Z,5.43
2018-06-01T22:33:54.040Z,7.63
2018-06-01T22:36:23.970Z,5.77
2018-06-01T22:38:53.982Z,7.83
2018-06-01T22:41:24.043Z,5.63
2018-06-01T22:43:53.249Z,8.47
2018-06-01T22:46:22.455Z,6.00
2018-06-01T22:48:51.677Z,6.20
2018-06-01T22:51:20.800Z,7.67
2018-06-01T22:53:50.764Z,7.40
2018-06-01T22:56:20.252Z,5.90
2018-06-01T22:58:49.489Z,7.47
2018-06-01T23:01:38.321Z,7.33
2018-06-01T23:04:07.537Z,6.03
2018-06-01T23:06:36.793Z,6.23
2018-06-01T23:09:05.989Z,6.67
2018-06-01T23:11:35.203Z,7.67
2018-06-01T23:14:04.505Z,8.17
2018-06-01T23:16:33.659Z,6.73
2018-06-01T23:22:01.790Z,7.10
2018-06-01T23:24:30.949Z,6.27
2018-06-01T23:27:00.299Z,9.03
2018-06-01T23:29:29.480Z,6.33
2018-06-01T23:31:58.679Z,7.63
2018-06-01T23:34:27.918Z,6.93
2018-06-01T23:36:57.110Z,8.77
2018-06-01T23:39:26.219Z,9.03
2018-06-01T23:41:55.424Z,8.27
2018-06-01T23:44:24.602Z,7.67
2018-06-01T23:46:53.791Z,9.57
2018-06-01T23:49:22.966Z,8.23
2018-06-01T23:51:52.119Z,10.00
2018-06-01T23:54:22.087Z,10.33
2018-06-01T23:56:51.261Z,8.50
2018-06-01T23:59:22.536Z,7.80
